sensor_id;sensor_type;location;lat;lon;timestamp;P1;durP1;ratioP1;P2;durP2;ratioP2
4692;SDS011;11710;48.024;16.296;2022-10-16T00:01:52;111.07;;;48.72;;
4692;SDS011;11710;48.024;16.296;2022-10-16T00:04:19;122.75;;;46.95;;
4692;SDS011;11710;48.024;16.296;2022-10-16T00:06:46;95.78;;;49.67;;
4692;SDS011;11710;48.024;16.296;2022-10-16T00:09:15;71.70;;;46.88;;
4692;SDS011;11710;48.024;16.296;2022-10-16T00:11:41;73.70;;;47.60;;
4692;SDS011;11710;48.024;16.296;2022-10-16T00:14:09;71.18;;;47.08;;
4692;SDS011;11710;48.024;16.296;2022-10-16T00:16:39;75.57;;;46.92;;
4692;SDS011;11710;48.024;16.296;2022-10-16T00:19:07;104.15;;;45.60;;
4692;SDS011;11710;48.024;16.296;2022-10-16T00:21:35;80.85;;;45.05;;
4692;SDS011;11710;48.024;16.296;2022-10-16T00:24:03;73.45;;;43.05;;
4692;SDS011;11710;48.024;16.296;2022-10-16T00:26:35;69.75;;;43.83;;
4692;SDS011;11710;48.024;16.296;2022-10-16T00:29:03;76.90;;;44.42;;
4692;SDS011;11710;48.024;16.296;2022-10-16T00:31:31;76.25;;;44.03;;
4692;SDS011;11710;48.024;16.296;2022-10-16T00:33:58;82.93;;;42.90;;
4692;SDS011;11710;48.024;16.296;2022-10-16T00:36:25;75.40;;;41.35;;
4692;SDS011;11710;48.024;16.296;2022-10-16T00:38:53;64.60;;;39.58;;
4692;SDS011;11710;48.024;16.296;2022-10-16T00:41:23;57.78;;;38.53;;
4692;SDS011;11710;48.024;16.296;2022-10-16T00:43:54;85.20;;;42.50;;
4692;SDS011;11710;48.024;16.296;2022-10-16T00:46:23;63.88;;;40.38;;
4692;SDS011;11710;48.024;16.296;2022-10-16T00:48:53;87.30;;;41.10;;
4692;SDS011;11710;48.024;16.296;2022-10-16T00:51:25;138.52;;;43.45;;
4692;SDS011;11710;48.024;16.296;2022-10-16T00:53:56;107.03;;;40.47;;
4692;SDS011;11710;48.024;16.296;2022-10-16T00:56:24;162.80;;;43.63;;
4692;SDS011;11710;48.024;16.296;2022-10-16T00:58:52;134.50;;;41.85;;
4692;SDS011;11710;48.024;16.296;2022-10-16T01:01:19;165.65;;;45.05;;
4692;SDS011;11710;48.024;16.296;2022-10-16T01:03:46;143.32;;;42.60;;
4692;SDS011;11710;48.024;16.296;2022-10-16T01:06:19;90.57;;;36.58;;
4692;SDS011;11710;48.024;16.296;2022-10-16T01:08:53;129.27;;;39.90;;
4692;SDS011;11710;48.024;16.296;2022-10-16T01:11:30;82.28;;;37.30;;
4692;SDS011;11710;48.024;16.296;2022-10-16T01:14:03;52.80;;;38.50;;
4692;SDS011;11710;48.024;16.296;2022-10-16T01:16:38;59.60;;;39.17;;
4692;SDS011;11710;48.024;16.296;2022-10-16T01:19:12;54.13;;;38.00;;
4692;SDS011;11710;48.024;16.296;2022-10-16T01:21:43;56.58;;;37.95;;
4692;SDS011;11710;48.024;16.296;2022-10-16T01:24:17;61.33;;;38.78;;
4692;SDS011;11710;48.024;16.296;2022-10-16T01:27:03;76.88;;;39.28;;
4692;SDS011;11710;48.024;16.296;2022-10-16T01:29:34;75.30;;;38.90;;
4692;SDS011;11710;48.024;16.296;2022-10-16T01:32:07;75.07;;;38.25;;
4692;SDS011;11710;48.024;16.296;2022-10-16T01:34:47;81.18;;;37.63;;
4692;SDS011;11710;48.024;16.296;2022-10-16T01:37:22;85.15;;;37.63;;
4692;SDS011;11710;48.024;16.296;2022-10-16T01:40:02;86.63;;;38.88;;
4692;SDS011;11710;48.024;16.296;2022-10-16T01:42:34;94.10;;;37.10;;
4692;SDS011;11710;48.024;16.296;2022-10-16T01:45:03;75.45;;;35.00;;
4692;SDS011;11710;48.024;16.296;2022-10-16T01:47:33;73.78;;;35.60;;
4692;SDS011;11710;48.024;16.296;2022-10-16T01:50:02;90.20;;;34.67;;
4692;SDS011;11710;48.024;16.296;2022-10-16T01:52:35;55.75;;;33.78;;
4692;SDS011;11710;48.024;16.296;2022-10-16T01:55:05;81.93;;;32.80;;
4692;SDS011;11710;48.024;16.296;2022-10-16T01:57:39;71.65;;;34.13;;
4692;SDS011;11710;48.024;16.296;2022-10-16T02:00:11;87.50;;;35.13;;
4692;SDS011;11710;48.024;16.296;2022-10-16T02:02:40;132.65;;;35.80;;
4692;SDS011;11710;48.024;16.296;2022-10-16T02:05:12;58.22;;;32.97;;
4692;SDS011;11710;48.024;16.296;2022-10-16T02:07:44;88.28;;;34.17;;
4692;SDS011;11710;48.024;16.296;2022-10-16T02:10:10;82.85;;;32.90;;
4692;SDS011;11710;48.024;16.296;2022-10-16T02:12:40;155.10;;;35.58;;
4692;SDS011;11710;48.024;16.296;2022-10-16T02:15:10;132.30;;;37.40;;
4692;SDS011;11710;48.024;16.296;2022-10-16T02:17:40;107.70;;;34.25;;
4692;SDS011;11710;48.024;16.296;2022-10-16T02:20:07;147.23;;;36.67;;
4692;SDS011;11710;48.024;16.296;2022-10-16T02:22:36;134.50;;;37.10;;
4692;SDS011;11710;48.024;16.296;2022-10-16T02:25:09;116.35;;;36.20;;
4692;SDS011;11710;48.024;16.296;2022-10-16T02:27:43;64.53;;;34.28;;
4692;SDS011;11710;48.024;16.296;2022-10-16T02:30:17;46.08;;;33.65;;
4692;SDS011;11710;48.024;16.296;2022-10-16T02:32:48;56.33;;;34.65;;
4692;SDS011;11710;48.024;16.296;2022-10-16T02:35:17;50.33;;;33.28;;
4692;SDS011;11710;48.024;16.296;2022-10-16T02:37:46;50.03;;;34.10;;
4692;SDS011;11710;48.024;16.296;2022-10-16T02:40:14;50.80;;;33.03;;
4692;SDS011;11710;48.024;16.296;2022-10-16T02:42:42;42.58;;;31.77;;
4692;SDS011;11710;48.024;16.296;2022-10-16T02:45:12;50.65;;;33.38;;
4692;SDS011;11710;48.024;16.296;2022-10-16T02:47:39;48.22;;;31.83;;
4692;SDS011;11710;48.024;16.296;2022-10-16T02:50:06;47.42;;;32.22;;
4692;SDS011;11710;48.024;16.296;2022-10-16T02:52:34;45.03;;;33.45;;
4692;SDS011;11710;48.024;16.296;2022-10-16T02:55:02;49.33;;;33.92;;
4692;SDS011;11710;48.024;16.296;2022-10-16T02:57:30;55.40;;;34.47;;
4692;SDS011;11710;48.024;16.296;2022-10-16T02:59:58;54.88;;;34.83;;
4692;SDS011;11710;48.024;16.296;2022-10-16T03:02:25;60.40;;;35.38;;
4692;SDS011;11710;48.024;16.296;2022-10-16T03:04:52;61.20;;;35.25;;
4692;SDS011;11710;48.024;16.296;2022-10-16T03:07:19;53.58;;;34.75;;
4692;SDS011;11710;48.024;16.296;2022-10-16T03:09:46;51.58;;;34.92;;
4692;SDS011;11710;48.024;16.296;2022-10-16T03:12:13;49.47;;;35.97;;
4692;SDS011;11710;48.024;16.296;2022-10-16T03:14:40;49.58;;;35.20;;
4692;SDS011;11710;48.024;16.296;2022-10-16T03:17:08;48.83;;;35.55;;
4692;SDS011;11710;48.024;16.296;2022-10-16T03:19:35;46.38;;;33.97;;
4692;SDS011;11710;48.024;16.296;2022-10-16T03:22:03;47.22;;;35.40;;
4692;SDS011;11710;48.024;16.296;2022-10-16T03:24:30;44.40;;;33.00;;
4692;SDS011;11710;48.024;16.296;2022-10-16T03:26:57;49.22;;;34.10;;
4692;SDS011;11710;48.024;16.296;2022-10-16T03:29:24;44.15;;;33.50;;
4692;SDS011;11710;48.024;16.296;2022-10-16T03:31:52;45.00;;;33.33;;
4692;SDS011;11710;48.024;16.296;2022-10-16T03:34:21;46.38;;;33.47;;
4692;SDS011;11710;48.024;16.296;2022-10-16T03:36:48;40.33;;;30.92;;
4692;SDS011;11710;48.024;16.296;2022-10-16T03:39:14;41.90;;;30.90;;
4692;SDS011;11710;48.024;16.296;2022-10-16T03:41:41;41.30;;;30.88;;
4692;SDS011;11710;48.024;16.296;2022-10-16T03:44:08;42.72;;;31.35;;
4692;SDS011;11710;48.024;16.296;2022-10-16T03:46:41;42.08;;;31.50;;
4692;SDS011;11710;48.024;16.296;2022-10-16T03:49:10;43.20;;;30.50;;
4692;SDS011;11710;48.024;16.296;2022-10-16T03:51:39;42.45;;;31.90;;
4692;SDS011;11710;48.024;16.296;2022-10-16T03:54:06;41.63;;;31.33;;
4692;SDS011;11710;48.024;16.296;2022-10-16T03:56:32;43.85;;;30.13;;
4692;SDS011;11710;48.024;16.296;2022-10-16T03:58:59;40.22;;;30.63;;
4692;SDS011;11710;48.024;16.296;2022-10-16T04:01:26;39.72;;;30.45;;
4692;SDS011;11710;48.024;16.296;2022-10-16T04:03:53;40.80;;;30.02;;
4692;SDS011;11710;48.024;16.296;2022-10-16T04:06:20;41.15;;;31.00;;
4692;SDS011;11710;48.024;16.296;2022-10-16T04:08:48;41.03;;;30.85;;
4692;SDS011;11710;48.024;16.296;2022-10-16T04:11:15;41.10;;;31.02;;
4692;SDS011;11710;48.024;16.296;2022-10-16T04:13:42;43.17;;;32.88;;
4692;SDS011;11710;48.024;16.296;2022-10-16T04:16:09;54.38;;;33.28;;
4692;SDS011;11710;48.024;16.296;2022-10-16T04:18:36;46.88;;;32.28;;
4692;SDS011;11710;48.024;16.296;2022-10-16T04:21:03;42.40;;;31.02;;
4692;SDS011;11710;48.024;16.296;2022-10-16T04:23:30;42.38;;;30.85;;
4692;SDS011;11710;48.024;16.296;2022-10-16T04:25:59;40.90;;;30.05;;
4692;SDS011;11710;48.024;16.296;2022-10-16T04:28:26;44.35;;;31.60;;
4692;SDS011;11710;48.024;16.296;2022-10-16T04:30:54;52.00;;;31.15;;
4692;SDS011;11710;48.024;16.296;2022-10-16T04:33:21;55.30;;;31.27;;
4692;SDS011;11710;48.024;16.296;2022-10-16T04:35:48;37.33;;;29.30;;
4692;SDS011;11710;48.024;16.296;2022-10-16T04:38:15;44.33;;;31.27;;
4692;SDS011;11710;48.024;16.296;2022-10-16T04:40:42;42.20;;;30.27;;
4692;SDS011;11710;48.024;16.296;2022-10-16T04:43:10;42.95;;;31.20;;
4692;SDS011;11710;48.024;16.296;2022-10-16T04:45:37;40.75;;;30.20;;
4692;SDS011;11710;48.024;16.296;2022-10-16T04:48:04;40.15;;;29.40;;
4692;SDS011;11710;48.024;16.296;2022-10-16T04:50:31;35.15;;;27.75;;
4692;SDS011;11710;48.024;16.296;2022-10-16T04:52:58;40.30;;;29.83;;
4692;SDS011;11710;48.024;16.296;2022-10-16T04:55:25;62.17;;;40.13;;
4692;SDS011;11710;48.024;16.296;2022-10-16T04:57:52;52.97;;;38.00;;
4692;SDS011;11710;48.024;16.296;2022-10-16T05:00:20;40.65;;;30.48;;
4692;SDS011;11710;48.024;16.296;2022-10-16T05:02:49;41.53;;;31.63;;
4692;SDS011;11710;48.024;16.296;2022-10-16T05:05:16;39.55;;;28.30;;
4692;SDS011;11710;48.024;16.296;2022-10-16T05:07:44;37.65;;;27.67;;
4692;SDS011;11710;48.024;16.296;2022-10-16T05:10:11;38.17;;;29.25;;
4692;SDS011;11710;48.024;16.296;2022-10-16T05:12:38;38.95;;;28.70;;
4692;SDS011;11710;48.024;16.296;2022-10-16T05:15:05;37.53;;;28.42;;
4692;SDS011;11710;48.024;16.296;2022-10-16T05:17:34;38.58;;;28.50;;
4692;SDS011;11710;48.024;16.296;2022-10-16T05:20:01;39.28;;;29.23;;
4692;SDS011;11710;48.024;16.296;2022-10-16T05:22:28;41.80;;;31.17;;
4692;SDS011;11710;48.024;16.296;2022-10-16T05:24:55;41.88;;;31.35;;
4692;SDS011;11710;48.024;16.296;2022-10-16T05:27:22;38.58;;;30.67;;
4692;SDS011;11710;48.024;16.296;2022-10-16T05:29:49;38.08;;;29.17;;
4692;SDS011;11710;48.024;16.296;2022-10-16T05:32:16;48.88;;;31.02;;
4692;SDS011;11710;48.024;16.296;2022-10-16T05:34:45;39.65;;;31.05;;
4692;SDS011;11710;48.024;16.296;2022-10-16T05:37:12;45.78;;;36.45;;
4692;SDS011;11710;48.024;16.296;2022-10-16T05:39:39;46.95;;;35.97;;
4692;SDS011;11710;48.024;16.296;2022-10-16T05:42:06;52.22;;;34.42;;
4692;SDS011;11710;48.024;16.296;2022-10-16T05:44:33;57.15;;;33.92;;
4692;SDS011;11710;48.024;16.296;2022-10-16T05:47:00;72.50;;;32.92;;
4692;SDS011;11710;48.024;16.296;2022-10-16T05:49:27;118.47;;;33.55;;
4692;SDS011;11710;48.024;16.296;2022-10-16T05:51:55;143.07;;;36.28;;
4692;SDS011;11710;48.024;16.296;2022-10-16T05:54:22;69.60;;;35.92;;
4692;SDS011;11710;48.024;16.296;2022-10-16T05:56:49;73.57;;;35.42;;
4692;SDS011;11710;48.024;16.296;2022-10-16T05:59:16;179.85;;;37.28;;
4692;SDS011;11710;48.024;16.296;2022-10-16T06:01:43;170.77;;;39.50;;
4692;SDS011;11710;48.024;16.296;2022-10-16T06:04:10;91.15;;;36.03;;
4692;SDS011;11710;48.024;16.296;2022-10-16T06:06:39;193.77;;;37.40;;
4692;SDS011;11710;48.024;16.296;2022-10-16T06:09:07;73.80;;;34.10;;
4692;SDS011;11710;48.024;16.296;2022-10-16T06:11:35;166.73;;;37.00;;
4692;SDS011;11710;48.024;16.296;2022-10-16T06:14:02;147.55;;;34.40;;
4692;SDS011;11710;48.024;16.296;2022-10-16T06:16:32;210.32;;;39.17;;
4692;SDS011;11710;48.024;16.296;2022-10-16T06:18:59;128.93;;;35.17;;
4692;SDS011;11710;48.024;16.296;2022-10-16T06:21:27;175.90;;;37.85;;
4692;SDS011;11710;48.024;16.296;2022-10-16T06:23:55;228.60;;;38.05;;
4692;SDS011;11710;48.024;16.296;2022-10-16T06:26:26;147.50;;;34.92;;
4692;SDS011;11710;48.024;16.296;2022-10-16T06:28:57;142.18;;;35.17;;
4692;SDS011;11710;48.024;16.296;2022-10-16T06:31:24;152.38;;;35.85;;
4692;SDS011;11710;48.024;16.296;2022-10-16T06:33:54;150.65;;;37.47;;
4692;SDS011;11710;48.024;16.296;2022-10-16T06:36:21;140.63;;;32.92;;
4692;SDS011;11710;48.024;16.296;2022-10-16T06:38:48;123.50;;;35.60;;
4692;SDS011;11710;48.024;16.296;2022-10-16T06:41:16;160.63;;;38.22;;
4692;SDS011;11710;48.024;16.296;2022-10-16T06:43:46;206.02;;;40.05;;
4692;SDS011;11710;48.024;16.296;2022-10-16T06:46:13;205.05;;;41.33;;
4692;SDS011;11710;48.024;16.296;2022-10-16T06:48:42;142.82;;;36.72;;
4692;SDS011;11710;48.024;16.296;2022-10-16T06:51:10;163.68;;;39.40;;
4692;SDS011;11710;48.024;16.296;2022-10-16T06:53:38;239.63;;;42.17;;
4692;SDS011;11710;48.024;16.296;2022-10-16T06:56:07;93.22;;;39.42;;
4692;SDS011;11710;48.024;16.296;2022-10-16T06:58:34;100.85;;;38.50;;
4692;SDS011;11710;48.024;16.296;2022-10-16T07:01:03;130.50;;;41.00;;
4692;SDS011;11710;48.024;16.296;2022-10-16T07:03:35;87.57;;;38.30;;
4692;SDS011;11710;48.024;16.296;2022-10-16T07:06:03;108.38;;;42.20;;
4692;SDS011;11710;48.024;16.296;2022-10-16T07:08:31;78.32;;;40.65;;
4692;SDS011;11710;48.024;16.296;2022-10-16T07:10:59;72.70;;;42.30;;
4692;SDS011;11710;48.024;16.296;2022-10-16T07:13:27;71.78;;;41.30;;
4692;SDS011;11710;48.024;16.296;2022-10-16T07:15:54;114.90;;;39.50;;
4692;SDS011;11710;48.024;16.296;2022-10-16T07:18:22;167.65;;;43.17;;
4692;SDS011;11710;48.024;16.296;2022-10-16T07:20:51;70.45;;;42.22;;
4692;SDS011;11710;48.024;16.296;2022-10-16T07:23:18;54.90;;;39.85;;
4692;SDS011;11710;48.024;16.296;2022-10-16T07:25:45;110.40;;;44.00;;
4692;SDS011;11710;48.024;16.296;2022-10-16T07:28:20;143.23;;;45.75;;
4692;SDS011;11710;48.024;16.296;2022-10-16T07:30:47;160.90;;;43.67;;
4692;SDS011;11710;48.024;16.296;2022-10-16T07:33:14;117.60;;;41.92;;
4692;SDS011;11710;48.024;16.296;2022-10-16T07:35:48;115.10;;;43.00;;
4692;SDS011;11710;48.024;16.296;2022-10-16T07:38:16;75.07;;;42.97;;
4692;SDS011;11710;48.024;16.296;2022-10-16T07:40:43;69.63;;;40.78;;
4692;SDS011;11710;48.024;16.296;2022-10-16T07:43:10;113.50;;;42.35;;
4692;SDS011;11710;48.024;16.296;2022-10-16T07:45:37;80.22;;;40.95;;
4692;SDS011;11710;48.024;16.296;2022-10-16T07:48:12;75.38;;;40.15;;
4692;SDS011;11710;48.024;16.296;2022-10-16T07:50:42;84.22;;;40.03;;
4692;SDS011;11710;48.024;16.296;2022-10-16T07:53:10;64.05;;;40.85;;
4692;SDS011;11710;48.024;16.296;2022-10-16T07:55:37;67.00;;;42.45;;
4692;SDS011;11710;48.024;16.296;2022-10-16T07:58:05;139.18;;;41.85;;
4692;SDS011;11710;48.024;16.296;2022-10-16T08:00:32;59.58;;;37.42;;
4692;SDS011;11710;48.024;16.296;2022-10-16T08:03:01;90.03;;;39.00;;
4692;SDS011;11710;48.024;16.296;2022-10-16T08:05:29;67.18;;;40.83;;
4692;SDS011;11710;48.024;16.296;2022-10-16T08:07:57;81.80;;;41.70;;
4692;SDS011;11710;48.024;16.296;2022-10-16T08:10:26;56.55;;;38.70;;
4692;SDS011;11710;48.024;16.296;2022-10-16T08:12:54;104.35;;;43.78;;
4692;SDS011;11710;48.024;16.296;2022-10-16T08:15:21;68.75;;;42.38;;
4692;SDS011;11710;48.024;16.296;2022-10-16T08:17:54;58.70;;;40.47;;
4692;SDS011;11710;48.024;16.296;2022-10-16T08:20:22;60.58;;;39.83;;
4692;SDS011;11710;48.024;16.296;2022-10-16T08:22:49;80.60;;;37.58;;
4692;SDS011;11710;48.024;16.296;2022-10-16T08:25:16;56.80;;;38.10;;
4692;SDS011;11710;48.024;16.296;2022-10-16T08:27:44;66.55;;;41.75;;
4692;SDS011;11710;48.024;16.296;2022-10-16T08:30:11;54.58;;;40.30;;
4692;SDS011;11710;48.024;16.296;2022-10-16T08:32:41;61.58;;;42.70;;
4692;SDS011;11710;48.024;16.296;2022-10-16T08:35:08;55.42;;;41.85;;
4692;SDS011;11710;48.024;16.296;2022-10-16T08:37:36;57.25;;;39.92;;
4692;SDS011;11710;48.024;16.296;2022-10-16T08:40:04;58.55;;;37.33;;
4692;SDS011;11710;48.024;16.296;2022-10-16T08:42:37;58.75;;;39.13;;
4692;SDS011;11710;48.024;16.296;2022-10-16T08:45:21;59.78;;;37.75;;
4692;SDS011;11710;48.024;16.296;2022-10-16T08:48:00;60.47;;;39.30;;
4692;SDS011;11710;48.024;16.296;2022-10-16T08:50:37;55.88;;;40.83;;
4692;SDS011;11710;48.024;16.296;2022-10-16T08:53:06;55.42;;;38.85;;
4692;SDS011;11710;48.024;16.296;2022-10-16T08:55:37;53.95;;;39.53;;
4692;SDS011;11710;48.024;16.296;2022-10-16T08:58:12;55.38;;;40.63;;
4692;SDS011;11710;48.024;16.296;2022-10-16T09:00:39;59.17;;;42.25;;
4692;SDS011;11710;48.024;16.296;2022-10-16T09:03:11;56.65;;;42.80;;
4692;SDS011;11710;48.024;16.296;2022-10-16T09:08:51;65.38;;;44.13;;
4692;SDS011;11710;48.024;16.296;2022-10-16T09:11:34;60.33;;;43.08;;
4692;SDS011;11710;48.024;16.296;2022-10-16T09:14:14;60.03;;;42.08;;
4692;SDS011;11710;48.024;16.296;2022-10-16T09:17:04;61.67;;;42.45;;
4692;SDS011;11710;48.024;16.296;2022-10-16T09:19:41;66.63;;;44.70;;
4692;SDS011;11710;48.024;16.296;2022-10-16T09:22:17;63.42;;;43.85;;
4692;SDS011;11710;48.024;16.296;2022-10-16T09:24:48;67.35;;;45.33;;
4692;SDS011;11710;48.024;16.296;2022-10-16T09:27:17;67.20;;;45.60;;
4692;SDS011;11710;48.024;16.296;2022-10-16T09:29:45;62.85;;;44.65;;
4692;SDS011;11710;48.024;16.296;2022-10-16T09:32:14;67.00;;;46.63;;
4692;SDS011;11710;48.024;16.296;2022-10-16T09:34:45;70.40;;;49.20;;
4692;SDS011;11710;48.024;16.296;2022-10-16T09:37:17;68.22;;;45.05;;
4692;SDS011;11710;48.024;16.296;2022-10-16T09:39:45;67.78;;;48.20;;
4692;SDS011;11710;48.024;16.296;2022-10-16T09:42:14;71.15;;;47.03;;
4692;SDS011;11710;48.024;16.296;2022-10-16T09:44:42;74.82;;;48.50;;
4692;SDS011;11710;48.024;16.296;2022-10-16T09:47:16;66.97;;;44.65;;
4692;SDS011;11710;48.024;16.296;2022-10-16T09:49:52;69.30;;;45.55;;
4692;SDS011;11710;48.024;16.296;2022-10-16T09:52:21;66.80;;;46.30;;
4692;SDS011;11710;48.024;16.296;2022-10-16T09:54:49;70.40;;;46.95;;
4692;SDS011;11710;48.024;16.296;2022-10-16T09:57:17;72.80;;;47.75;;
4692;SDS011;11710;48.024;16.296;2022-10-16T09:59:49;74.18;;;46.97;;
4692;SDS011;11710;48.024;16.296;2022-10-16T10:02:18;74.07;;;49.13;;
4692;SDS011;11710;48.024;16.296;2022-10-16T10:04:50;69.63;;;46.15;;
4692;SDS011;11710;48.024;16.296;2022-10-16T10:07:21;74.50;;;49.10;;
4692;SDS011;11710;48.024;16.296;2022-10-16T10:09:51;78.75;;;50.90;;
4692;SDS011;11710;48.024;16.296;2022-10-16T10:12:19;78.68;;;49.85;;
4692;SDS011;11710;48.024;16.296;2022-10-16T10:14:49;77.35;;;49.08;;
4692;SDS011;11710;48.024;16.296;2022-10-16T10:17:18;72.88;;;48.20;;
4692;SDS011;11710;48.024;16.296;2022-10-16T10:19:48;75.55;;;47.38;;
4692;SDS011;11710;48.024;16.296;2022-10-16T10:22:17;73.45;;;48.17;;
4692;SDS011;11710;48.024;16.296;2022-10-16T10:24:57;67.65;;;45.38;;
4692;SDS011;11710;48.024;16.296;2022-10-16T10:27:32;67.93;;;45.42;;
4692;SDS011;11710;48.024;16.296;2022-10-16T10:30:08;68.07;;;45.53;;
4692;SDS011;11710;48.024;16.296;2022-10-16T10:32:42;67.93;;;46.05;;
4692;SDS011;11710;48.024;16.296;2022-10-16T10:35:18;88.93;;;54.20;;
4692;SDS011;11710;48.024;16.296;2022-10-16T10:37:54;83.57;;;51.95;;
4692;SDS011;11710;48.024;16.296;2022-10-16T10:40:32;68.57;;;45.80;;
4692;SDS011;11710;48.024;16.296;2022-10-16T10:43:11;64.07;;;44.50;;
4692;SDS011;11710;48.024;16.296;2022-10-16T10:45:47;59.55;;;41.33;;
4692;SDS011;11710;48.024;16.296;2022-10-16T10:48:21;58.78;;;40.60;;
4692;SDS011;11710;48.024;16.296;2022-10-16T10:50:56;60.40;;;42.15;;
4692;SDS011;11710;48.024;16.296;2022-10-16T10:53:30;60.17;;;41.92;;
4692;SDS011;11710;48.024;16.296;2022-10-16T10:56:08;62.80;;;43.15;;
4692;SDS011;11710;48.024;16.296;2022-10-16T10:58:50;61.45;;;41.25;;
4692;SDS011;11710;48.024;16.296;2022-10-16T11:01:35;54.57;;;40.57;;
4692;SDS011;11710;48.024;16.296;2022-10-16T11:04:21;54.77;;;40.30;;
4692;SDS011;11710;48.024;16.296;2022-10-16T11:07:09;63.60;;;42.67;;
4692;SDS011;11710;48.024;16.296;2022-10-16T11:09:41;61.60;;;43.63;;
4692;SDS011;11710;48.024;16.296;2022-10-16T11:12:14;57.97;;;43.00;;
4692;SDS011;11710;48.024;16.296;2022-10-16T11:14:46;62.37;;;43.60;;
4692;SDS011;11710;48.024;16.296;2022-10-16T11:17:19;61.77;;;43.60;;
4692;SDS011;11710;48.024;16.296;2022-10-16T11:19:52;58.80;;;41.83;;
4692;SDS011;11710;48.024;16.296;2022-10-16T11:22:24;58.43;;;41.97;;
4692;SDS011;11710;48.024;16.296;2022-10-16T11:24:59;64.07;;;43.70;;
4692;SDS011;11710;48.024;16.296;2022-10-16T11:27:34;61.00;;;44.73;;
4692;SDS011;11710;48.024;16.296;2022-10-16T11:30:05;68.53;;;43.33;;
4692;SDS011;11710;48.024;16.296;2022-10-16T11:32:44;61.60;;;44.27;;
4692;SDS011;11710;48.024;16.296;2022-10-16T11:35:19;59.97;;;43.90;;
4692;SDS011;11710;48.024;16.296;2022-10-16T11:37:50;56.10;;;41.90;;
4692;SDS011;11710;48.024;16.296;2022-10-16T11:40:24;60.33;;;43.50;;
4692;SDS011;11710;48.024;16.296;2022-10-16T11:42:54;58.13;;;42.83;;
4692;SDS011;11710;48.024;16.296;2022-10-16T11:45:26;59.67;;;44.40;;
4692;SDS011;11710;48.024;16.296;2022-10-16T11:48:00;57.17;;;43.00;;
4692;SDS011;11710;48.024;16.296;2022-10-16T11:50:31;56.20;;;41.67;;
4692;SDS011;11710;48.024;16.296;2022-10-16T11:53:04;54.70;;;42.57;;
4692;SDS011;11710;48.024;16.296;2022-10-16T11:55:40;56.60;;;42.47;;
4692;SDS011;11710;48.024;16.296;2022-10-16T11:58:12;53.43;;;40.30;;
4692;SDS011;11710;48.024;16.296;2022-10-16T12:01:01;69.10;;;42.57;;
4692;SDS011;11710;48.024;16.296;2022-10-16T12:03:45;53.87;;;41.40;;
4692;SDS011;11710;48.024;16.296;2022-10-16T12:06:26;54.40;;;41.43;;
4692;SDS011;11710;48.024;16.296;2022-10-16T12:09:00;58.13;;;43.73;;
4692;SDS011;11710;48.024;16.296;2022-10-16T12:11:32;57.67;;;43.20;;
4692;SDS011;11710;48.024;16.296;2022-10-16T12:14:05;56.43;;;43.20;;
4692;SDS011;11710;48.024;16.296;2022-10-16T12:16:34;56.33;;;43.37;;
4692;SDS011;11710;48.024;16.296;2022-10-16T12:19:12;57.27;;;40.60;;
4692;SDS011;11710;48.024;16.296;2022-10-16T12:21:40;58.10;;;44.73;;
4692;SDS011;11710;48.024;16.296;2022-10-16T12:24:19;57.10;;;42.87;;
4692;SDS011;11710;48.024;16.296;2022-10-16T12:27:19;50.97;;;41.23;;
4692;SDS011;11710;48.024;16.296;2022-10-16T12:29:53;55.63;;;42.20;;
4692;SDS011;11710;48.024;16.296;2022-10-16T12:32:23;58.33;;;43.60;;
4692;SDS011;11710;48.024;16.296;2022-10-16T12:34:58;57.93;;;44.67;;
4692;SDS011;11710;48.024;16.296;2022-10-16T12:37:28;56.70;;;43.37;;
4692;SDS011;11710;48.024;16.296;2022-10-16T12:39:58;57.23;;;45.03;;
4692;SDS011;11710;48.024;16.296;2022-10-16T12:42:32;53.97;;;44.13;;
4692;SDS011;11710;48.024;16.296;2022-10-16T12:45:00;58.17;;;46.00;;
4692;SDS011;11710;48.024;16.296;2022-10-16T12:47:47;54.37;;;43.27;;
4692;SDS011;11710;48.024;16.296;2022-10-16T12:50:25;57.43;;;44.83;;
4692;SDS011;11710;48.024;16.296;2022-10-16T12:52:55;53.67;;;43.60;;
4692;SDS011;11710;48.024;16.296;2022-10-16T12:55:23;54.17;;;44.03;;
4692;SDS011;11710;48.024;16.296;2022-10-16T12:58:09;56.50;;;44.63;;
4692;SDS011;11710;48.024;16.296;2022-10-16T13:00:54;57.17;;;46.33;;
4692;SDS011;11710;48.024;16.296;2022-10-16T13:03:27;56.10;;;45.50;;
4692;SDS011;11710;48.024;16.296;2022-10-16T13:06:26;58.33;;;45.43;;
4692;SDS011;11710;48.024;16.296;2022-10-16T13:11:54;55.43;;;44.60;;
4692;SDS011;11710;48.024;16.296;2022-10-16T13:14:48;60.00;;;48.50;;
4692;SDS011;11710;48.024;16.296;2022-10-16T13:17:31;56.80;;;44.00;;
4692;SDS011;11710;48.024;16.296;2022-10-16T13:20:10;55.30;;;44.80;;
4692;SDS011;11710;48.024;16.296;2022-10-16T13:22:46;56.73;;;46.87;;
4692;SDS011;11710;48.024;16.296;2022-10-16T13:25:24;55.60;;;43.07;;
4692;SDS011;11710;48.024;16.296;2022-10-16T13:28:01;59.83;;;45.37;;
4692;SDS011;11710;48.024;16.296;2022-10-16T13:30:29;56.83;;;44.90;;
4692;SDS011;11710;48.024;16.296;2022-10-16T13:33:02;58.00;;;45.90;;
4692;SDS011;11710;48.024;16.296;2022-10-16T13:35:33;57.80;;;45.80;;
4692;SDS011;11710;48.024;16.296;2022-10-16T13:40:50;55.23;;;44.83;;
4692;SDS011;11710;48.024;16.296;2022-10-16T13:43:19;55.67;;;43.63;;
4692;SDS011;11710;48.024;16.296;2022-10-16T13:45:53;58.23;;;45.80;;
4692;SDS011;11710;48.024;16.296;2022-10-16T13:48:24;57.17;;;44.77;;
4692;SDS011;11710;48.024;16.296;2022-10-16T13:50:58;58.17;;;45.70;;
4692;SDS011;11710;48.024;16.296;2022-10-16T13:53:40;56.20;;;44.83;;
4692;SDS011;11710;48.024;16.296;2022-10-16T13:56:10;56.33;;;44.70;;
4692;SDS011;11710;48.024;16.296;2022-10-16T13:58:39;55.90;;;44.57;;
4692;SDS011;11710;48.024;16.296;2022-10-16T14:01:14;57.60;;;45.17;;
4692;SDS011;11710;48.024;16.296;2022-10-16T14:03:44;54.97;;;43.83;;
4692;SDS011;11710;48.024;16.296;2022-10-16T14:06:12;56.10;;;44.40;;
4692;SDS011;11710;48.024;16.296;2022-10-16T14:08:44;58.43;;;46.60;;
4692;SDS011;11710;48.024;16.296;2022-10-16T14:11:19;58.60;;;46.60;;
4692;SDS011;11710;48.024;16.296;2022-10-16T14:13:47;53.73;;;45.50;;
4692;SDS011;11710;48.024;16.296;2022-10-16T14:16:16;53.50;;;43.70;;
4692;SDS011;11710;48.024;16.296;2022-10-16T14:18:46;58.90;;;45.50;;
4692;SDS011;11710;48.024;16.296;2022-10-16T14:21:19;57.37;;;44.70;;
4692;SDS011;11710;48.024;16.296;2022-10-16T14:23:48;54.40;;;44.00;;
4692;SDS011;11710;48.024;16.296;2022-10-16T14:26:16;56.20;;;44.63;;
4692;SDS011;11710;48.024;16.296;2022-10-16T14:28:46;62.13;;;44.57;;
4692;SDS011;11710;48.024;16.296;2022-10-16T14:31:23;53.90;;;43.93;;
4692;SDS011;11710;48.024;16.296;2022-10-16T14:33:52;56.47;;;43.57;;
4692;SDS011;11710;48.024;16.296;2022-10-16T14:36:19;52.10;;;43.40;;
4692;SDS011;11710;48.024;16.296;2022-10-16T14:38:51;50.83;;;42.10;;
4692;SDS011;11710;48.024;16.296;2022-10-16T14:41:26;51.57;;;42.77;;
4692;SDS011;11710;48.024;16.296;2022-10-16T14:43:54;54.93;;;43.83;;
4692;SDS011;11710;48.024;16.296;2022-10-16T14:46:28;56.23;;;44.50;;
4692;SDS011;11710;48.024;16.296;2022-10-16T14:49:00;54.50;;;43.20;;